createdAt,value
2018-08-14T00:00:04.349Z,15.59
2018-08-14T00:05:04.350Z,15.67
2018-08-14T00:10:04.375Z,15.8
2018-08-14T00:15:04.359Z,15.93
2018-08-14T00:20:04.372Z,15.85
2018-08-14T00:25:04.382Z,15.83
2018-08-14T00:30:04.367Z,15.97
2018-08-14T00:35:04.371Z,16.06
2018-08-14T00:40:04.395Z,16.34
2018-08-14T00:45:04.375Z,16.47
2018-08-14T00:50:04.380Z,16.41
2018-08-14T00:55:04.406Z,16.49
2018-08-14T01:00:04.387Z,16.62
2018-08-14T01:05:04.411Z,16.73
2018-08-14T01:10:04.399Z,16.79
2018-08-14T01:15:04.396Z,16.79
2018-08-14T01:20:03.379Z,16.66
2018-08-14T01:25:03.400Z,16.59
2018-08-14T01:30:03.419Z,16.54
2018-08-14T01:35:03.401Z,16.57
2018-08-14T01:40:03.405Z,16.46
2018-08-14T01:45:03.413Z,16.22
2018-08-14T01:50:03.412Z,16.04
2018-08-14T01:55:03.413Z,15.85
2018-08-14T02:00:03.438Z,15.85
2018-08-14T02:05:03.419Z,15.75
2018-08-14T02:10:03.423Z,15.58
2018-08-14T02:15:03.437Z,15.15
2018-08-14T02:20:03.426Z,14.85
2018-08-14T02:25:03.449Z,14.57
2018-08-14T02:30:03.437Z,14.34
2018-08-14T02:35:03.433Z,14.21
2018-08-14T02:40:03.433Z,14.34
2018-08-14T02:45:03.443Z,14.3
2018-08-14T02:50:03.444Z,14.11
2018-08-14T02:55:03.442Z,13.96
2018-08-14T03:00:03.458Z,13.84
2018-08-14T03:05:03.451Z,13.75
2018-08-14T03:10:03.460Z,13.74
2018-08-14T03:15:03.457Z,13.98
2018-08-14T03:20:03.460Z,14.07
2018-08-14T03:25:03.462Z,13.99
2018-08-14T03:30:03.472Z,13.75
2018-08-14T03:35:03.463Z,13.55
2018-08-14T03:40:03.467Z,13.45
2018-08-14T03:45:03.494Z,13.38
2018-08-14T03:50:03.473Z,13.22
2018-08-14T03:55:03.481Z,13.14
2018-08-14T04:00:03.497Z,13.08
2018-08-14T04:05:03.482Z,12.96
2018-08-14T04:10:03.487Z,12.89
2018-08-14T04:15:03.491Z,12.94
2018-08-14T04:20:03.489Z,12.99
2018-08-14T04:25:03.491Z,13.11
2018-08-14T04:30:03.499Z,13.23
2018-08-14T04:35:03.493Z,13.23
2018-08-14T04:40:03.497Z,13.24
2018-08-14T04:45:03.512Z,13.34
2018-08-14T04:50:03.503Z,13.78
2018-08-14T04:55:03.509Z,14.32
2018-08-14T05:00:03.516Z,14.71
2018-08-14T05:05:03.510Z,14.96
2018-08-14T05:10:03.518Z,15.23
2018-08-14T05:15:03.525Z,15.42
2018-08-14T05:20:03.527Z,15.34
2018-08-14T05:25:03.525Z,15.22
2018-08-14T05:30:03.531Z,15.15
2018-08-14T05:35:03.536Z,15.34
2018-08-14T05:40:03.535Z,15.46
2018-08-14T05:45:03.541Z,15.74
2018-08-14T05:50:03.541Z,15.9
2018-08-14T05:55:03.540Z,16.14
2018-08-14T06:00:03.553Z,16.39
2018-08-14T06:05:03.546Z,16.56
2018-08-14T06:10:03.553Z,16.78
2018-08-14T06:15:03.560Z,17.07
2018-08-14T06:20:03.553Z,17.49
2018-08-14T06:25:03.587Z,17.98
2018-08-14T06:30:03.570Z,18.4
2018-08-14T06:35:03.562Z,18.89
2018-08-14T06:40:03.567Z,19.09
2018-08-14T06:45:03.586Z,19.85
2018-08-14T06:50:03.576Z,20.55
2018-08-14T06:55:03.594Z,20.24
2018-08-14T07:00:03.597Z,19.7
2018-08-14T07:05:03.597Z,19.44
2018-08-14T07:10:03.600Z,19.17
2018-08-14T07:15:03.601Z,18.86
2018-08-14T07:20:03.612Z,18.67
2018-08-14T07:25:03.606Z,17.97
2018-08-14T07:30:03.593Z,16.87
2018-08-14T07:35:03.592Z,16.65
2018-08-14T07:40:03.597Z,16.88
2018-08-14T07:45:03.606Z,17.41
2018-08-14T07:50:03.602Z,18.84
2018-08-14T07:55:03.623Z,20.24
2018-08-14T08:00:03.622Z,20.95
2018-08-14T08:05:03.608Z,21.36
2018-08-14T08:10:03.612Z,20.71
2018-08-14T08:15:03.633Z,20.17
2018-08-14T08:20:03.620Z,19.81
2018-08-14T08:25:03.619Z,19.25
2018-08-14T08:30:03.639Z,18.85
2018-08-14T08:35:03.624Z,19.07
2018-08-14T08:40:03.630Z,19.08
2018-08-14T08:45:03.655Z,19.08
2018-08-14T08:50:03.636Z,19.71
2018-08-14T08:55:03.640Z,20.32
2018-08-14T09:00:03.673Z,20.44
2018-08-14T09:05:03.638Z,20.74
2018-08-14T09:10:03.649Z,20.96
2018-08-14T09:15:03.654Z,21.98
2018-08-14T09:20:03.649Z,23.2
2018-08-14T09:25:03.657Z,24.54
2018-08-14T09:30:03.670Z,24.83
2018-08-14T09:35:03.657Z,23.6
2018-08-14T09:40:03.663Z,23.15
2018-08-14T09:45:03.668Z,22.81
2018-08-14T09:50:03.668Z,22.1
2018-08-14T09:55:03.674Z,21.49
2018-08-14T10:00:03.681Z,21.1
2018-08-14T10:05:03.690Z,21.76
2018-08-14T10:10:03.680Z,21.94
2018-08-14T10:15:03.679Z,22.51
2018-08-14T10:20:03.687Z,19.68
2018-08-14T10:25:03.682Z,17.9
2018-08-14T10:30:03.686Z,18.17
2018-08-14T10:35:03.697Z,18.54
2018-08-14T10:40:03.761Z,19.17
2018-08-14T10:45:03.696Z,19.94
2018-08-14T10:50:03.717Z,20.43
2018-08-14T10:55:03.704Z,41.01
2018-08-14T11:00:03.701Z,41.01
2018-08-14T11:05:03.712Z,16.77
2018-08-14T11:15:03.718Z,41.01
2018-08-14T11:20:03.727Z,17.4
2018-08-14T11:25:03.721Z,17.98
2018-08-14T11:30:03.717Z,18.41
2018-08-14T11:35:03.731Z,18.78
2018-08-14T11:40:03.728Z,19.3
2018-08-14T11:45:03.730Z,41.01
2018-08-14T11:50:03.756Z,41.01
2018-08-14T11:55:03.735Z,23.13
2018-08-14T12:00:03.741Z,23.31
2018-08-14T12:05:03.751Z,22.07
2018-08-14T12:10:03.742Z,21.07
2018-08-14T12:15:03.743Z,41.01
2018-08-14T12:20:03.764Z,20.66
2018-08-14T12:25:03.753Z,20.91
2018-08-14T12:30:03.756Z,19.96
2018-08-14T12:35:03.864Z,18.21
2018-08-14T12:40:03.763Z,18.54
2018-08-14T12:45:03.786Z,19.62
2018-08-14T12:50:03.782Z,20.44
2018-08-14T12:55:03.774Z,22.27
2018-08-14T13:00:03.768Z,23.7
2018-08-14T13:05:03.776Z,21.31
2018-08-14T13:10:03.795Z,18.71
2018-08-14T13:15:03.815Z,17.32
2018-08-14T13:20:03.793Z,17.07
2018-08-14T13:25:03.782Z,16.98
2018-08-14T13:30:03.806Z,16.91
2018-08-14T13:35:03.802Z,17.1
2018-08-14T13:40:03.879Z,17.38
2018-08-14T13:45:03.796Z,17.46
2018-08-14T13:50:03.811Z,17.56
2018-08-14T13:55:03.806Z,17.49
2018-08-14T14:00:03.805Z,17.65
2018-08-14T14:05:03.836Z,17.59
2018-08-14T14:10:03.813Z,17.45
2018-08-14T14:15:03.831Z,17.21
2018-08-14T14:20:03.831Z,17.49
2018-08-14T14:25:03.831Z,17.88
2018-08-14T14:30:03.827Z,17.79
2018-08-14T14:35:03.819Z,17.4
2018-08-14T14:40:03.843Z,16.92
2018-08-14T14:45:03.831Z,16.92
2018-08-14T14:50:03.835Z,17.59
2018-08-14T14:55:03.840Z,18.87
2018-08-14T15:00:03.838Z,18.93
2018-08-14T15:05:03.837Z,19.99
2018-08-14T15:10:03.868Z,20.06
2018-08-14T15:15:03.844Z,20.01
2018-08-14T15:20:03.895Z,19.72
2018-08-14T15:25:03.866Z,19.4
2018-08-14T15:30:03.850Z,19.62
2018-08-14T15:35:03.853Z,19.68
2018-08-14T15:40:03.864Z,19.82
2018-08-14T15:45:03.860Z,19.63
2018-08-14T15:50:03.859Z,19.56
2018-08-14T15:55:03.919Z,19.56
2018-08-14T16:00:03.868Z,19.67
2018-08-14T16:05:03.871Z,19.75
2018-08-14T16:10:03.883Z,19.85
2018-08-14T16:15:03.879Z,19.91
2018-08-14T16:20:03.876Z,19.98
2018-08-14T16:25:03.899Z,20.18
2018-08-14T16:30:03.884Z,20.51
2018-08-14T16:35:03.888Z,20.94
2018-08-14T16:40:03.900Z,21.45
2018-08-14T16:45:03.890Z,21.45
2018-08-14T16:50:03.896Z,21.06
2018-08-14T16:55:03.909Z,20.77
2018-08-14T17:00:03.901Z,20.63
2018-08-14T17:05:03.901Z,20.54
2018-08-14T17:10:03.926Z,20.53
2018-08-14T17:15:03.908Z,20.46
2018-08-14T17:20:03.910Z,20.32
2018-08-14T17:25:03.937Z,20.05
2018-08-14T17:30:03.917Z,19.86
2018-08-14T17:35:03.924Z,19.72
2018-08-14T17:40:03.934Z,19.63
2018-08-14T17:45:03.922Z,19.45
2018-08-14T17:50:03.927Z,19.48
2018-08-14T17:55:03.939Z,19.65
2018-08-14T18:00:03.928Z,19.71
2018-08-14T18:05:03.934Z,19.77
2018-08-14T18:10:03.944Z,19.66
2018-08-14T18:15:03.940Z,19.59
2018-08-14T18:20:03.943Z,19.57
2018-08-14T18:25:03.950Z,19.61
2018-08-14T18:30:03.946Z,19.51
2018-08-14T18:35:03.961Z,19.45
2018-08-14T18:40:03.955Z,19.42
2018-08-14T18:45:03.955Z,19.25
2018-08-14T18:50:03.959Z,19.25
2018-08-14T18:55:03.973Z,19.15
2018-08-14T19:00:03.960Z,18.94
2018-08-14T19:05:04.012Z,18.66
2018-08-14T19:10:03.979Z,18.47
2018-08-14T19:15:03.976Z,18.33
2018-08-14T19:20:03.984Z,18.15
2018-08-14T19:25:03.983Z,18.08
2018-08-14T19:30:03.979Z,18.02
2018-08-14T19:35:03.982Z,18
2018-08-14T19:40:04.007Z,17.95
2018-08-14T19:45:03.992Z,17.77
2018-08-14T19:50:03.983Z,17.76
2018-08-14T19:55:04.000Z,17.85
2018-08-14T20:00:04.016Z,17.78
2018-08-14T20:05:04.001Z,17.63
2018-08-14T20:10:04.016Z,17.54
2018-08-14T20:15:04.007Z,17.37
2018-08-14T20:20:04.021Z,17.4
2018-08-14T20:25:04.027Z,17.21
2018-08-14T20:30:04.019Z,17.21
2018-08-14T20:35:04.019Z,17.21
2018-08-14T20:40:04.032Z,17.33
2018-08-14T20:45:04.038Z,17.4
2018-08-14T20:50:04.037Z,17.35
2018-08-14T20:55:04.046Z,17.3
2018-08-14T21:00:04.021Z,17.04
2018-08-14T21:05:04.048Z,16.88
2018-08-14T21:10:04.040Z,16.66
2018-08-14T21:15:04.042Z,16.47
2018-08-14T21:20:04.065Z,16.48
2018-08-14T21:25:04.064Z,16.46
2018-08-14T21:30:04.048Z,16.4
2018-08-14T21:35:04.047Z,16.35
2018-08-14T21:40:04.067Z,16.29
2018-08-14T21:45:04.050Z,16.22
2018-08-14T21:50:04.069Z,16.04
2018-08-14T21:55:04.064Z,15.89
2018-08-14T22:00:04.054Z,15.81
2018-08-14T22:05:04.168Z,15.71
2018-08-14T22:10:04.080Z,15.6
2018-08-14T22:15:04.090Z,15.59
2018-08-14T22:20:04.072Z,15.59
2018-08-14T22:25:04.088Z,15.48
2018-08-14T22:30:04.089Z,15.28
2018-08-14T22:35:04.076Z,15.14
2018-08-14T22:40:04.097Z,14.86
2018-08-14T22:45:04.080Z,14.72
2018-08-14T22:50:04.097Z,14.77
2018-08-14T22:55:04.093Z,14.74
2018-08-14T23:00:04.175Z,14.67
2018-08-14T23:05:04.093Z,14.64
2018-08-14T23:10:04.097Z,14.27
2018-08-14T23:15:04.093Z,14.06
2018-08-14T23:20:04.098Z,14.08
2018-08-14T23:25:04.120Z,14.15
2018-08-14T23:30:04.107Z,14.15
2018-08-14T23:35:04.109Z,14.18
2018-08-14T23:40:04.119Z,14.23
2018-08-14T23:45:04.121Z,14.33
2018-08-14T23:50:04.119Z,14.37
2018-08-14T23:55:04.134Z,14.5
